createdAt,value
2022-08-19T00:02:12.903Z,15.73
2022-08-19T00:05:00.307Z,16.00
2022-08-19T00:07:47.816Z,15.05
2022-08-19T00:10:35.231Z,14.93
2022-08-19T00:13:27.064Z,14.77
2022-08-19T00:16:17.324Z,15.27
2022-08-19T00:19:09.430Z,14.65
2022-08-19T00:21:59.830Z,15.07
2022-08-19T00:24:50.869Z,14.77
2022-08-19T00:27:41.181Z,16.13
2022-08-19T00:30:32.716Z,16.17
2022-08-19T00:33:23.731Z,15.77
2022-08-19T00:36:14.553Z,16.50
2022-08-19T00:39:04.611Z,17.00
2022-08-19T00:41:53.863Z,17.30
2022-08-19T00:44:43.843Z,18.77
2022-08-19T00:47:35.564Z,17.63
2022-08-19T00:50:25.650Z,18.40
2022-08-19T00:53:15.903Z,19.23
2022-08-19T00:56:09.742Z,18.05
2022-08-19T00:59:00.272Z,18.38
2022-08-19T01:01:49.599Z,18.30
2022-08-19T01:04:42.218Z,19.00
2022-08-19T01:07:37.919Z,18.08
2022-08-19T01:10:30.731Z,18.05
2022-08-19T01:13:24.348Z,18.10
2022-08-19T01:16:14.127Z,17.50
2022-08-19T01:19:04.588Z,17.60
2022-08-19T01:21:58.841Z,18.45
2022-08-19T01:24:52.343Z,18.17
2022-08-19T01:27:44.046Z,17.05
2022-08-19T01:30:34.507Z,18.40
2022-08-19T01:33:21.913Z,17.10
2022-08-19T01:36:10.795Z,16.95
2022-08-19T01:38:59.348Z,17.63
2022-08-19T01:41:47.723Z,18.05
2022-08-19T01:44:35.127Z,17.23
2022-08-19T01:47:22.322Z,17.27
2022-08-19T01:50:11.319Z,17.17
2022-08-19T01:53:06.147Z,17.35
2022-08-19T01:55:54.607Z,16.45
2022-08-19T01:58:44.740Z,15.73
2022-08-19T02:01:33.154Z,15.38
2022-08-19T02:04:20.492Z,16.55
2022-08-19T02:07:08.904Z,18.10
2022-08-19T02:09:56.513Z,15.82
2022-08-19T02:12:43.975Z,17.17
2022-08-19T02:15:33.032Z,18.83
2022-08-19T02:18:20.363Z,16.63
2022-08-19T02:21:07.478Z,17.45
2022-08-19T02:23:54.814Z,16.30
2022-08-19T02:26:42.508Z,17.45
2022-08-19T02:29:29.792Z,16.25
2022-08-19T02:32:19.743Z,15.90
2022-08-19T02:35:12.421Z,16.25
2022-08-19T02:38:13.723Z,16.33
2022-08-19T02:41:01.592Z,16.60
2022-08-19T02:44:26.518Z,13.60
2022-08-19T02:46:57.547Z,14.73
2022-08-19T02:49:46.320Z,14.45
2022-08-19T02:52:34.559Z,13.90
2022-08-19T02:55:21.843Z,14.05
2022-08-19T02:58:08.934Z,13.75
2022-08-19T03:00:56.909Z,14.05
2022-08-19T03:03:44.160Z,13.20
2022-08-19T03:06:32.652Z,12.88
2022-08-19T03:09:20.594Z,11.63
2022-08-19T03:12:08.280Z,13.20
2022-08-19T03:14:55.292Z,11.88
2022-08-19T03:17:42.540Z,11.30
2022-08-19T03:20:30.059Z,10.73
2022-08-19T03:23:19.322Z,11.50
2022-08-19T03:26:16.431Z,10.80
2022-08-19T03:29:05.689Z,11.43
2022-08-19T03:31:53.947Z,11.10
2022-08-19T03:34:41.251Z,10.05
2022-08-19T03:37:28.350Z,11.55
2022-08-19T03:40:17.590Z,10.98
2022-08-19T03:43:04.974Z,12.23
2022-08-19T03:46:01.111Z,11.18
2022-08-19T03:48:49.367Z,12.65
2022-08-19T03:51:38.018Z,12.00
2022-08-19T03:54:26.153Z,11.65
2022-08-19T03:57:15.175Z,12.57
2022-08-19T04:00:04.093Z,12.15
2022-08-19T04:03:01.424Z,11.68
2022-08-19T04:05:48.892Z,12.25
2022-08-19T04:08:36.553Z,12.02
2022-08-19T04:11:42.905Z,11.13
2022-08-19T04:14:33.502Z,10.88
2022-08-19T04:17:20.447Z,11.13
2022-08-19T04:20:07.750Z,10.73
2022-08-19T04:22:54.997Z,10.88
2022-08-19T04:25:43.276Z,10.85
2022-08-19T04:28:30.661Z,11.15
2022-08-19T04:31:21.346Z,11.00
2022-08-19T04:34:11.746Z,10.10
2022-08-19T04:36:59.575Z,11.70
2022-08-19T04:40:04.041Z,11.85
2022-08-19T04:42:51.806Z,11.45
2022-08-19T04:45:43.934Z,10.52
2022-08-19T04:48:33.418Z,11.25
2022-08-19T04:51:22.343Z,11.93
2022-08-19T04:54:09.776Z,11.88
2022-08-19T04:56:56.723Z,13.85
2022-08-19T04:59:44.042Z,14.23
2022-08-19T05:02:31.443Z,15.30
2022-08-19T05:05:21.046Z,15.15
2022-08-19T05:08:08.193Z,15.68
2022-08-19T05:10:56.075Z,15.00
2022-08-19T05:13:44.190Z,16.25
2022-08-19T05:16:31.700Z,16.17
2022-08-19T05:19:36.703Z,16.05
2022-08-19T05:22:35.830Z,16.25
2022-08-19T05:25:25.562Z,18.15
2022-08-19T05:28:13.386Z,18.20
2022-08-19T05:31:01.163Z,18.75
2022-08-19T05:33:48.670Z,18.30
2022-08-19T05:36:36.870Z,18.88
2022-08-19T05:39:27.018Z,19.17
2022-08-19T05:42:14.423Z,19.08
2022-08-19T05:45:02.023Z,21.05
2022-08-19T05:47:49.255Z,21.83
2022-08-19T05:50:38.658Z,19.48
2022-08-19T05:53:25.807Z,19.75
2022-08-19T05:56:16.994Z,22.08
2022-08-19T05:59:05.140Z,21.02
2022-08-19T06:01:58.178Z,22.20
2022-08-19T06:04:45.250Z,22.30
2022-08-19T06:07:32.241Z,23.20
2022-08-19T06:10:20.201Z,22.23
2022-08-19T06:13:08.965Z,24.45
2022-08-19T06:15:56.014Z,24.83
2022-08-19T06:18:44.404Z,27.55
2022-08-19T06:21:32.592Z,28.45
2022-08-19T06:24:24.415Z,28.30
2022-08-19T06:27:12.054Z,27.73
2022-08-19T06:30:00.723Z,28.27
2022-08-19T06:32:48.153Z,28.67
2022-08-19T06:35:40.922Z,27.25
2022-08-19T06:38:28.476Z,29.73
2022-08-19T06:41:15.713Z,29.88
2022-08-19T06:44:03.026Z,31.73
2022-08-19T06:46:54.928Z,30.92
2022-08-19T06:49:42.137Z,33.05
2022-08-19T06:52:30.031Z,32.88
2022-08-19T06:55:17.551Z,31.95
2022-08-19T06:58:06.334Z,32.88
2022-08-19T07:00:53.741Z,32.58
2022-08-19T07:03:42.799Z,31.85
2022-08-19T07:06:44.333Z,30.48
2022-08-19T07:09:32.581Z,32.50
2022-08-19T07:12:20.971Z,33.03
2022-08-19T07:15:11.817Z,30.75
2022-08-19T07:17:59.139Z,32.33
2022-08-19T07:20:49.084Z,33.70
2022-08-19T07:26:27.915Z,34.92
2022-08-19T07:29:15.904Z,37.70
2022-08-19T07:32:03.340Z,35.20
2022-08-19T07:34:51.232Z,37.50
2022-08-19T07:37:45.238Z,38.45
2022-08-19T07:40:32.703Z,34.65
2022-08-19T07:43:26.249Z,35.40
2022-08-19T07:46:23.140Z,39.95
2022-08-19T07:49:18.620Z,35.53
2022-08-19T07:52:07.543Z,34.28
2022-08-19T07:54:56.359Z,34.20
2022-08-19T08:00:31.953Z,32.67
2022-08-19T08:03:21.210Z,35.42
2022-08-19T08:06:25.714Z,32.80
2022-08-19T08:12:32.788Z,34.55
2022-08-19T08:15:21.056Z,35.72
2022-08-19T08:18:13.087Z,33.25
2022-08-19T08:21:02.355Z,33.50
2022-08-19T08:23:51.085Z,34.65
2022-08-19T08:26:39.140Z,36.17
2022-08-19T08:29:35.491Z,34.50
2022-08-19T08:32:22.634Z,34.83
2022-08-19T08:35:12.323Z,35.08
2022-08-19T08:38:00.370Z,34.33
2022-08-19T08:40:51.120Z,35.92
2022-08-19T08:43:42.421Z,36.45
2022-08-19T08:46:36.583Z,39.30
2022-08-19T08:52:14.277Z,42.33
2022-08-19T08:55:10.171Z,43.80
2022-08-19T08:58:02.808Z,42.55
2022-08-19T09:00:51.219Z,44.95
2022-08-19T09:03:40.343Z,40.00
2022-08-19T09:06:34.344Z,37.53
2022-08-19T09:09:25.195Z,34.85
2022-08-19T09:12:20.671Z,32.58
2022-08-19T09:15:15.067Z,31.58
2022-08-19T09:18:04.440Z,32.50
2022-08-19T09:20:57.185Z,31.65
2022-08-19T09:23:45.034Z,31.88
2022-08-19T09:26:35.506Z,29.80
2022-08-19T09:29:35.951Z,27.60
2022-08-19T09:32:26.308Z,31.02
2022-08-19T09:35:16.281Z,29.30
2022-08-19T09:38:05.445Z,27.63
2022-08-19T09:40:53.234Z,27.90
2022-08-19T09:43:44.282Z,24.70
2022-08-19T09:46:32.804Z,23.88
2022-08-19T09:49:20.856Z,23.30
2022-08-19T09:52:08.899Z,25.20
2022-08-19T09:55:07.276Z,24.77
2022-08-19T09:57:56.285Z,24.73
2022-08-19T10:00:43.830Z,26.67
2022-08-19T10:03:38.207Z,25.70
2022-08-19T10:06:45.784Z,25.30
2022-08-19T10:09:35.085Z,26.67
2022-08-19T10:12:24.076Z,23.65
2022-08-19T10:15:14.363Z,25.42
2022-08-19T10:18:03.949Z,24.70
2022-08-19T10:20:53.503Z,26.17
2022-08-19T10:23:45.718Z,25.45
2022-08-19T10:26:34.817Z,22.40
2022-08-19T10:29:31.850Z,22.95
2022-08-19T10:32:20.435Z,22.45
2022-08-19T10:35:22.040Z,22.50
2022-08-19T10:38:11.077Z,21.77
2022-08-19T10:40:58.886Z,22.00
2022-08-19T10:43:46.423Z,20.42
2022-08-19T10:46:37.396Z,21.25
2022-08-19T10:49:25.153Z,21.35
2022-08-19T10:52:32.327Z,22.52
2022-08-19T10:55:38.610Z,20.58
2022-08-19T10:58:26.385Z,21.08
2022-08-19T11:01:14.051Z,19.55
2022-08-19T11:04:03.504Z,20.52
2022-08-19T11:06:51.295Z,21.50
2022-08-19T11:09:40.899Z,19.77
2022-08-19T11:12:28.833Z,18.80
2022-08-19T11:15:16.529Z,14.90
2022-08-19T11:18:04.159Z,17.05
2022-08-19T11:20:53.494Z,16.83
2022-08-19T11:23:40.587Z,15.82
2022-08-19T11:26:28.604Z,14.80
2022-08-19T11:29:16.631Z,15.57
2022-08-19T11:32:06.782Z,16.35
2022-08-19T11:34:54.368Z,15.00
2022-08-19T11:37:44.220Z,16.50
2022-08-19T11:40:32.093Z,15.35
2022-08-19T11:43:19.543Z,13.35
2022-08-19T11:46:08.409Z,14.90
2022-08-19T11:48:56.260Z,14.07
2022-08-19T11:51:44.312Z,12.10
2022-08-19T11:54:33.966Z,13.80
2022-08-19T11:57:21.907Z,14.73
2022-08-19T12:00:10.922Z,13.52
2022-08-19T12:02:58.229Z,12.52
2022-08-19T12:05:45.432Z,11.73
2022-08-19T12:08:33.354Z,12.18
2022-08-19T12:11:24.227Z,13.73
2022-08-19T12:14:14.613Z,14.13
2022-08-19T12:17:03.143Z,16.52
2022-08-19T12:19:50.856Z,19.92
2022-08-19T12:22:38.507Z,18.52
2022-08-19T12:25:26.001Z,15.95
2022-08-19T12:28:16.204Z,14.70
2022-08-19T12:31:03.751Z,16.15
2022-08-19T12:33:51.553Z,14.75
2022-08-19T12:36:39.198Z,13.57
2022-08-19T12:39:27.200Z,14.23
2022-08-19T12:42:16.007Z,13.70
2022-08-19T12:45:06.478Z,15.50
2022-08-19T12:47:55.052Z,14.82
2022-08-19T12:50:42.528Z,12.30
2022-08-19T12:53:29.998Z,13.13
2022-08-19T12:56:21.090Z,12.77
2022-08-19T12:59:12.328Z,13.80
2022-08-19T13:02:01.587Z,11.52
2022-08-19T13:04:49.380Z,12.35
2022-08-19T13:07:38.224Z,10.52
2022-08-19T13:10:27.470Z,9.48
2022-08-19T13:13:14.743Z,9.10
2022-08-19T13:16:03.764Z,9.05
2022-08-19T13:18:53.174Z,9.80
2022-08-19T13:21:40.303Z,9.70
2022-08-19T13:24:33.560Z,9.02
2022-08-19T13:27:21.008Z,9.85
2022-08-19T13:30:27.340Z,10.55
2022-08-19T13:33:16.240Z,10.23
2022-08-19T13:36:08.693Z,10.88
2022-08-19T13:38:57.691Z,11.75
2022-08-19T13:41:48.756Z,10.88
2022-08-19T13:44:35.971Z,10.52
2022-08-19T13:47:22.825Z,11.15
2022-08-19T13:50:10.663Z,11.63
2022-08-19T13:52:59.626Z,9.55
2022-08-19T13:55:47.682Z,10.35
2022-08-19T13:58:34.542Z,10.50
2022-08-19T14:01:24.347Z,9.48
2022-08-19T14:04:12.035Z,9.50
2022-08-19T14:06:59.471Z,9.18
2022-08-19T14:09:48.190Z,8.60
2022-08-19T14:12:36.515Z,8.82
2022-08-19T14:15:24.311Z,9.05
2022-08-19T14:18:12.002Z,8.38
2022-08-19T14:20:59.540Z,8.20
2022-08-19T14:23:47.306Z,8.25
2022-08-19T14:26:35.732Z,8.23
2022-08-19T14:29:23.676Z,8.63
2022-08-19T14:32:16.165Z,7.53
2022-08-19T14:35:04.554Z,7.93
2022-08-19T14:37:55.111Z,7.88
2022-08-19T14:40:43.022Z,7.85
2022-08-19T14:43:31.475Z,7.28
2022-08-19T14:46:20.667Z,7.50
2022-08-19T14:49:09.461Z,7.78
2022-08-19T14:51:57.580Z,7.70
2022-08-19T14:54:45.333Z,7.75
2022-08-19T14:57:33.105Z,8.80
2022-08-19T15:00:21.747Z,7.72
2022-08-19T15:03:08.951Z,7.30
2022-08-19T15:05:56.473Z,8.43
2022-08-19T15:08:46.071Z,7.97
2022-08-19T15:11:33.723Z,8.32
2022-08-19T15:14:21.883Z,9.10
2022-08-19T15:17:11.033Z,7.75
2022-08-19T15:19:58.375Z,8.05
2022-08-19T15:22:45.821Z,7.65
2022-08-19T15:25:33.586Z,8.05
2022-08-19T15:28:20.556Z,7.10
2022-08-19T15:31:07.940Z,7.45
2022-08-19T15:34:07.863Z,6.63
2022-08-19T15:36:55.166Z,6.80
2022-08-19T15:39:42.528Z,7.10
2022-08-19T15:42:30.520Z,5.78
2022-08-19T15:45:18.880Z,5.93
2022-08-19T15:48:06.615Z,5.65
2022-08-19T15:50:55.058Z,5.30
2022-08-19T15:53:42.379Z,6.15
2022-08-19T15:56:57.687Z,5.97
2022-08-19T16:00:03.401Z,5.75
2022-08-19T16:03:08.361Z,6.15
2022-08-19T16:06:14.915Z,6.05
2022-08-19T16:09:03.173Z,5.55
2022-08-19T16:11:56.478Z,5.28
2022-08-19T16:17:31.990Z,5.93
2022-08-19T16:20:22.068Z,5.60
2022-08-19T16:23:12.789Z,5.75
2022-08-19T16:26:00.459Z,5.53
2022-08-19T16:28:48.487Z,5.43
2022-08-19T16:31:36.662Z,5.45
2022-08-19T16:34:24.992Z,5.93
2022-08-19T16:37:12.011Z,6.40
2022-08-19T16:40:00.738Z,5.97
2022-08-19T16:42:47.878Z,6.15
2022-08-19T16:45:34.965Z,6.68
2022-08-19T16:48:22.083Z,6.32
2022-08-19T16:51:09.497Z,5.95
2022-08-19T16:53:56.939Z,6.22
2022-08-19T16:56:45.226Z,6.05
2022-08-19T16:59:33.039Z,5.70
2022-08-19T17:02:22.107Z,6.40
2022-08-19T17:05:09.701Z,6.32
2022-08-19T17:07:57.159Z,6.22
2022-08-19T17:11:01.931Z,6.35
2022-08-19T17:13:53.771Z,6.10
2022-08-19T17:16:41.062Z,6.07
2022-08-19T17:19:28.366Z,6.28
2022-08-19T17:22:15.513Z,5.70
2022-08-19T17:25:03.014Z,6.30
2022-08-19T17:27:51.554Z,6.22
2022-08-19T17:30:41.375Z,5.72
2022-08-19T17:33:28.189Z,5.95
2022-08-19T17:36:15.371Z,6.07
2022-08-19T17:39:04.138Z,5.82
2022-08-19T17:41:51.407Z,5.90
2022-08-19T17:44:38.469Z,5.47
2022-08-19T17:47:27.395Z,4.97
2022-08-19T17:50:14.920Z,5.25
2022-08-19T17:53:01.967Z,4.80
2022-08-19T17:55:49.676Z,4.93
2022-08-19T17:58:36.872Z,4.90
2022-08-19T18:01:51.893Z,4.88
2022-08-19T18:04:38.403Z,4.65
2022-08-19T18:07:25.700Z,5.10
2022-08-19T18:10:13.579Z,5.25
2022-08-19T18:13:01.542Z,4.80
2022-08-19T18:15:49.952Z,5.68
2022-08-19T18:18:37.033Z,4.85
2022-08-19T18:21:31.556Z,4.82
2022-08-19T18:24:18.756Z,5.05
2022-08-19T18:27:06.965Z,5.43
2022-08-19T18:29:59.951Z,5.00
2022-08-19T18:32:49.608Z,5.05
2022-08-19T18:35:38.967Z,4.80
2022-08-19T18:38:44.628Z,5.03
2022-08-19T18:41:49.273Z,5.00
2022-08-19T18:44:56.773Z,5.22
2022-08-19T18:48:04.140Z,5.47
2022-08-19T18:53:41.311Z,6.00
2022-08-19T18:56:32.000Z,5.82
2022-08-19T18:59:20.036Z,5.85
2022-08-19T19:02:07.456Z,6.78
2022-08-19T19:04:56.413Z,6.18
2022-08-19T19:07:44.208Z,6.75
2022-08-19T19:10:32.732Z,6.38
2022-08-19T19:13:20.508Z,6.70
2022-08-19T19:16:08.836Z,6.88
2022-08-19T19:18:56.140Z,7.28
2022-08-19T19:21:46.827Z,8.05
2022-08-19T19:24:37.524Z,7.53
2022-08-19T19:27:26.347Z,8.10
2022-08-19T19:30:13.815Z,7.35
2022-08-19T19:33:02.416Z,7.40
2022-08-19T19:35:49.342Z,7.38
2022-08-19T19:38:36.670Z,7.60
2022-08-19T19:41:25.086Z,7.60
2022-08-19T19:44:30.145Z,7.47
2022-08-19T19:47:18.780Z,7.47
2022-08-19T19:50:15.123Z,8.18
2022-08-19T19:53:02.589Z,7.72
2022-08-19T19:55:49.541Z,7.10
2022-08-19T19:58:36.766Z,7.07
2022-08-19T20:01:27.176Z,7.30
2022-08-19T20:04:14.533Z,7.85
2022-08-19T20:07:01.925Z,6.80
2022-08-19T20:09:59.666Z,6.72
2022-08-19T20:12:47.104Z,6.10
2022-08-19T20:15:37.931Z,5.90
2022-08-19T20:18:29.152Z,6.45
2022-08-19T20:21:16.427Z,6.22
2022-08-19T20:24:09.900Z,6.18
2022-08-19T20:26:58.431Z,6.25
2022-08-19T20:29:45.470Z,6.00
2022-08-19T20:32:32.749Z,5.95
2022-08-19T20:35:22.510Z,5.95
2022-08-19T20:38:10.662Z,6.70
2022-08-19T20:40:57.775Z,6.82
2022-08-19T20:43:45.640Z,6.65
2022-08-19T20:46:33.487Z,6.75
2022-08-19T20:49:21.375Z,6.95
2022-08-19T20:52:10.789Z,7.07
2022-08-19T20:54:57.925Z,7.20
2022-08-19T20:57:46.941Z,6.85
2022-08-19T21:00:34.659Z,6.30
2022-08-19T21:03:23.015Z,6.45
2022-08-19T21:06:10.924Z,7.45
2022-08-19T21:09:02.336Z,8.30
2022-08-19T21:11:49.567Z,7.13
2022-08-19T21:14:39.865Z,7.95
2022-08-19T21:17:27.150Z,8.02
2022-08-19T21:20:14.125Z,7.45
2022-08-19T21:23:04.415Z,7.40
2022-08-19T21:25:54.892Z,8.07
2022-08-19T21:28:41.968Z,7.68
2022-08-19T21:31:29.156Z,7.47
2022-08-19T21:34:16.643Z,8.00
2022-08-19T21:37:04.237Z,7.28
2022-08-19T21:39:51.331Z,7.30
2022-08-19T21:42:39.744Z,6.78
2022-08-19T21:45:27.198Z,7.00
2022-08-19T21:48:14.895Z,6.80
2022-08-19T21:51:01.834Z,6.75
2022-08-19T21:53:48.848Z,6.30
2022-08-19T21:56:40.459Z,7.13
2022-08-19T21:59:28.712Z,6.97
2022-08-19T22:02:21.520Z,6.13
2022-08-19T22:05:08.945Z,6.38
2022-08-19T22:07:57.683Z,6.03
2022-08-19T22:10:45.343Z,6.50
2022-08-19T22:13:40.124Z,5.47
2022-08-19T22:16:29.142Z,5.55
2022-08-19T22:19:17.011Z,6.05
2022-08-19T22:22:04.378Z,5.00
2022-08-19T22:24:51.787Z,4.82
2022-08-19T22:27:38.994Z,5.45
2022-08-19T22:30:33.348Z,4.78
2022-08-19T22:33:22.791Z,5.03
2022-08-19T22:36:09.859Z,4.07
2022-08-19T22:38:57.153Z,4.38
2022-08-19T22:41:44.484Z,4.50
2022-08-19T22:44:32.651Z,4.15
2022-08-19T22:47:19.951Z,4.35
2022-08-19T22:50:14.029Z,4.07
2022-08-19T22:53:02.638Z,3.60
2022-08-19T22:55:49.868Z,3.58
2022-08-19T22:58:38.312Z,4.00
2022-08-19T23:01:30.255Z,4.10
2022-08-19T23:04:17.988Z,4.60
2022-08-19T23:07:08.287Z,4.50
2022-08-19T23:09:55.246Z,4.55
2022-08-19T23:12:45.335Z,5.43
2022-08-19T23:15:33.683Z,5.50
2022-08-19T23:18:20.626Z,5.57
2022-08-19T23:21:09.666Z,5.47
2022-08-19T23:23:58.193Z,5.38
2022-08-19T23:27:05.953Z,6.20
2022-08-19T23:30:10.684Z,5.18
2022-08-19T23:33:02.039Z,6.13
2022-08-19T23:35:49.563Z,7.63
2022-08-19T23:38:36.920Z,7.05
2022-08-19T23:41:27.197Z,7.00
2022-08-19T23:44:14.584Z,7.82
2022-08-19T23:47:06.231Z,7.35
2022-08-19T23:49:54.776Z,9.88
2022-08-19T23:52:44.813Z,9.80
2022-08-19T23:55:33.111Z,9.10
2022-08-19T23:58:22.500Z,9.48
